sensor_id;sensor_type;location;lat;lon;timestamp;P1;durP1;ratioP1;P2;durP2;ratioP2
50932;SDS011;36921;49.006;9.292;2023-12-28T00:01:43;6.00;;;2.30;;
50932;SDS011;36921;49.006;9.292;2023-12-28T00:04:09;6.13;;;2.30;;
50932;SDS011;36921;49.006;9.292;2023-12-28T00:06:34;5.25;;;2.35;;
50932;SDS011;36921;49.006;9.292;2023-12-28T00:08:59;6.72;;;2.25;;
50932;SDS011;36921;49.006;9.292;2023-12-28T00:11:27;3.97;;;2.10;;
50932;SDS011;36921;49.006;9.292;2023-12-28T00:13:53;3.40;;;1.75;;
50932;SDS011;36921;49.006;9.292;2023-12-28T00:16:18;4.90;;;2.60;;
50932;SDS011;36921;49.006;9.292;2023-12-28T00:18:43;8.05;;;2.25;;
50932;SDS011;36921;49.006;9.292;2023-12-28T00:21:09;3.53;;;2.03;;
50932;SDS011;36921;49.006;9.292;2023-12-28T00:23:34;4.60;;;2.17;;
50932;SDS011;36921;49.006;9.292;2023-12-28T00:26:00;5.97;;;2.25;;
50932;SDS011;36921;49.006;9.292;2023-12-28T00:28:25;5.25;;;2.40;;
50932;SDS011;36921;49.006;9.292;2023-12-28T00:30:51;4.68;;;2.15;;
50932;SDS011;36921;49.006;9.292;2023-12-28T00:33:16;3.85;;;2.10;;
50932;SDS011;36921;49.006;9.292;2023-12-28T00:35:42;5.28;;;2.22;;
50932;SDS011;36921;49.006;9.292;2023-12-28T00:38:07;4.30;;;2.30;;
50932;SDS011;36921;49.006;9.292;2023-12-28T00:40:33;6.47;;;2.03;;
50932;SDS011;36921;49.006;9.292;2023-12-28T00:42:58;5.60;;;1.80;;
50932;SDS011;36921;49.006;9.292;2023-12-28T00:45:23;5.78;;;2.67;;
50932;SDS011;36921;49.006;9.292;2023-12-28T00:47:49;6.03;;;2.60;;
50932;SDS011;36921;49.006;9.292;2023-12-28T00:50:17;6.90;;;2.42;;
50932;SDS011;36921;49.006;9.292;2023-12-28T00:52:42;5.50;;;2.50;;
50932;SDS011;36921;49.006;9.292;2023-12-28T00:55:08;5.82;;;2.67;;
50932;SDS011;36921;49.006;9.292;2023-12-28T00:57:35;6.20;;;2.60;;
50932;SDS011;36921;49.006;9.292;2023-12-28T01:00:01;3.58;;;1.77;;
50932;SDS011;36921;49.006;9.292;2023-12-28T01:02:27;5.90;;;2.00;;
50932;SDS011;36921;49.006;9.292;2023-12-28T01:04:52;4.30;;;2.05;;
50932;SDS011;36921;49.006;9.292;2023-12-28T01:07:18;4.43;;;1.83;;
50932;SDS011;36921;49.006;9.292;2023-12-28T01:09:43;3.38;;;1.90;;
50932;SDS011;36921;49.006;9.292;2023-12-28T01:12:08;4.03;;;2.00;;
50932;SDS011;36921;49.006;9.292;2023-12-28T01:14:34;3.95;;;1.92;;
50932;SDS011;36921;49.006;9.292;2023-12-28T01:16:59;3.42;;;2.00;;
50932;SDS011;36921;49.006;9.292;2023-12-28T01:19:25;3.08;;;1.58;;
50932;SDS011;36921;49.006;9.292;2023-12-28T01:21:50;5.78;;;1.90;;
50932;SDS011;36921;49.006;9.292;2023-12-28T01:24:16;3.80;;;1.98;;
50932;SDS011;36921;49.006;9.292;2023-12-28T01:26:41;5.38;;;2.03;;
50932;SDS011;36921;49.006;9.292;2023-12-28T01:29:07;2.83;;;1.55;;
50932;SDS011;36921;49.006;9.292;2023-12-28T01:31:32;3.95;;;1.85;;
50932;SDS011;36921;49.006;9.292;2023-12-28T01:33:59;3.80;;;1.85;;
50932;SDS011;36921;49.006;9.292;2023-12-28T01:36:24;3.05;;;1.50;;
50932;SDS011;36921;49.006;9.292;2023-12-28T01:38:51;2.60;;;1.75;;
50932;SDS011;36921;49.006;9.292;2023-12-28T01:41:16;2.97;;;1.60;;
50932;SDS011;36921;49.006;9.292;2023-12-28T01:43:42;4.35;;;1.85;;
50932;SDS011;36921;49.006;9.292;2023-12-28T01:46:09;4.65;;;2.00;;
50932;SDS011;36921;49.006;9.292;2023-12-28T01:48:38;4.03;;;2.00;;
50932;SDS011;36921;49.006;9.292;2023-12-28T01:51:04;4.43;;;2.40;;
50932;SDS011;36921;49.006;9.292;2023-12-28T01:53:29;7.70;;;2.00;;
50932;SDS011;36921;49.006;9.292;2023-12-28T01:55:55;3.25;;;1.92;;
50932;SDS011;36921;49.006;9.292;2023-12-28T01:58:20;3.53;;;1.70;;
50932;SDS011;36921;49.006;9.292;2023-12-28T02:00:46;3.08;;;1.80;;
50932;SDS011;36921;49.006;9.292;2023-12-28T02:03:12;4.38;;;1.77;;
50932;SDS011;36921;49.006;9.292;2023-12-28T02:05:37;4.55;;;1.90;;
50932;SDS011;36921;49.006;9.292;2023-12-28T02:08:03;3.85;;;1.95;;
50932;SDS011;36921;49.006;9.292;2023-12-28T02:10:28;4.78;;;2.17;;
50932;SDS011;36921;49.006;9.292;2023-12-28T02:12:54;6.20;;;2.20;;
50932;SDS011;36921;49.006;9.292;2023-12-28T02:15:20;4.15;;;2.35;;
50932;SDS011;36921;49.006;9.292;2023-12-28T02:20:25;5.72;;;1.70;;
50932;SDS011;36921;49.006;9.292;2023-12-28T02:22:54;6.68;;;1.65;;
50932;SDS011;36921;49.006;9.292;2023-12-28T02:25:20;4.30;;;1.80;;
50932;SDS011;36921;49.006;9.292;2023-12-28T02:27:45;3.75;;;1.77;;
50932;SDS011;36921;49.006;9.292;2023-12-28T02:30:13;3.10;;;1.35;;
50932;SDS011;36921;49.006;9.292;2023-12-28T02:35:50;4.65;;;1.88;;
50932;SDS011;36921;49.006;9.292;2023-12-28T02:38:20;3.10;;;1.60;;
50932;SDS011;36921;49.006;9.292;2023-12-28T02:40:48;3.67;;;1.77;;
50932;SDS011;36921;49.006;9.292;2023-12-28T02:43:14;3.50;;;1.50;;
50932;SDS011;36921;49.006;9.292;2023-12-28T02:45:40;6.75;;;1.63;;
50932;SDS011;36921;49.006;9.292;2023-12-28T02:48:05;3.25;;;1.52;;
50932;SDS011;36921;49.006;9.292;2023-12-28T02:50:32;3.95;;;1.80;;
50932;SDS011;36921;49.006;9.292;2023-12-28T02:52:58;3.90;;;1.55;;
50932;SDS011;36921;49.006;9.292;2023-12-28T02:55:23;4.15;;;1.75;;
50932;SDS011;36921;49.006;9.292;2023-12-28T02:57:49;2.63;;;1.45;;
50932;SDS011;36921;49.006;9.292;2023-12-28T03:00:16;3.00;;;1.48;;
50932;SDS011;36921;49.006;9.292;2023-12-28T03:02:41;3.38;;;1.60;;
50932;SDS011;36921;49.006;9.292;2023-12-28T03:05:07;3.65;;;1.63;;
50932;SDS011;36921;49.006;9.292;2023-12-28T03:07:33;3.03;;;1.50;;
50932;SDS011;36921;49.006;9.292;2023-12-28T03:09:59;5.85;;;2.25;;
50932;SDS011;36921;49.006;9.292;2023-12-28T03:12:24;4.57;;;1.85;;
50932;SDS011;36921;49.006;9.292;2023-12-28T03:14:50;5.10;;;1.67;;
50932;SDS011;36921;49.006;9.292;2023-12-28T03:17:15;3.97;;;1.65;;
50932;SDS011;36921;49.006;9.292;2023-12-28T03:19:40;4.88;;;1.80;;
50932;SDS011;36921;49.006;9.292;2023-12-28T03:22:05;4.28;;;1.80;;
50932;SDS011;36921;49.006;9.292;2023-12-28T03:24:31;4.38;;;1.70;;
50932;SDS011;36921;49.006;9.292;2023-12-28T03:26:56;2.60;;;1.40;;
50932;SDS011;36921;49.006;9.292;2023-12-28T03:29:21;4.00;;;1.60;;
50932;SDS011;36921;49.006;9.292;2023-12-28T03:31:47;2.63;;;1.45;;
50932;SDS011;36921;49.006;9.292;2023-12-28T03:34:12;2.15;;;1.08;;
50932;SDS011;36921;49.006;9.292;2023-12-28T03:36:37;2.88;;;1.17;;
50932;SDS011;36921;49.006;9.292;2023-12-28T03:39:03;2.75;;;1.35;;
50932;SDS011;36921;49.006;9.292;2023-12-28T03:41:31;5.88;;;1.40;;
50932;SDS011;36921;49.006;9.292;2023-12-28T03:43:57;2.95;;;1.15;;
50932;SDS011;36921;49.006;9.292;2023-12-28T03:46:22;2.42;;;1.27;;
50932;SDS011;36921;49.006;9.292;2023-12-28T03:48:48;4.15;;;1.40;;
50932;SDS011;36921;49.006;9.292;2023-12-28T03:51:16;3.72;;;1.30;;
50932;SDS011;36921;49.006;9.292;2023-12-28T03:53:42;2.13;;;1.20;;
50932;SDS011;36921;49.006;9.292;2023-12-28T03:56:07;3.45;;;1.52;;
50932;SDS011;36921;49.006;9.292;2023-12-28T03:58:33;2.83;;;1.30;;
50932;SDS011;36921;49.006;9.292;2023-12-28T04:00:58;2.88;;;1.35;;
50932;SDS011;36921;49.006;9.292;2023-12-28T04:03:23;2.80;;;1.40;;
50932;SDS011;36921;49.006;9.292;2023-12-28T04:05:50;6.63;;;1.80;;
50932;SDS011;36921;49.006;9.292;2023-12-28T04:08:15;2.25;;;1.40;;
50932;SDS011;36921;49.006;9.292;2023-12-28T04:10:41;3.47;;;1.23;;
50932;SDS011;36921;49.006;9.292;2023-12-28T04:13:06;2.38;;;1.25;;
50932;SDS011;36921;49.006;9.292;2023-12-28T04:15:31;6.75;;;1.45;;
50932;SDS011;36921;49.006;9.292;2023-12-28T04:17:57;2.63;;;1.17;;
50932;SDS011;36921;49.006;9.292;2023-12-28T04:20:22;2.33;;;1.20;;
50932;SDS011;36921;49.006;9.292;2023-12-28T04:22:48;3.53;;;1.30;;
50932;SDS011;36921;49.006;9.292;2023-12-28T04:25:13;2.13;;;1.20;;
50932;SDS011;36921;49.006;9.292;2023-12-28T04:27:41;2.33;;;1.10;;
50932;SDS011;36921;49.006;9.292;2023-12-28T04:30:07;2.10;;;1.20;;
50932;SDS011;36921;49.006;9.292;2023-12-28T04:32:33;1.95;;;1.00;;
50932;SDS011;36921;49.006;9.292;2023-12-28T04:34:58;2.35;;;1.00;;
50932;SDS011;36921;49.006;9.292;2023-12-28T04:37:23;2.47;;;1.40;;
50932;SDS011;36921;49.006;9.292;2023-12-28T04:39:51;2.50;;;1.10;;
50932;SDS011;36921;49.006;9.292;2023-12-28T04:42:16;3.50;;;1.30;;
50932;SDS011;36921;49.006;9.292;2023-12-28T04:44:41;2.75;;;1.20;;
50932;SDS011;36921;49.006;9.292;2023-12-28T04:47:06;4.43;;;1.13;;
50932;SDS011;36921;49.006;9.292;2023-12-28T04:49:32;2.88;;;1.10;;
50932;SDS011;36921;49.006;9.292;2023-12-28T04:51:57;2.88;;;1.00;;
50932;SDS011;36921;49.006;9.292;2023-12-28T04:54:22;2.13;;;1.25;;
50932;SDS011;36921;49.006;9.292;2023-12-28T04:56:48;2.55;;;1.10;;
50932;SDS011;36921;49.006;9.292;2023-12-28T04:59:13;2.88;;;1.20;;
50932;SDS011;36921;49.006;9.292;2023-12-28T05:01:42;2.10;;;1.15;;
50932;SDS011;36921;49.006;9.292;2023-12-28T05:04:08;1.80;;;1.20;;
50932;SDS011;36921;49.006;9.292;2023-12-28T05:06:33;1.80;;;1.10;;
50932;SDS011;36921;49.006;9.292;2023-12-28T05:08:59;3.70;;;1.42;;
50932;SDS011;36921;49.006;9.292;2023-12-28T05:11:24;1.85;;;1.02;;
50932;SDS011;36921;49.006;9.292;2023-12-28T05:13:50;1.83;;;0.90;;
50932;SDS011;36921;49.006;9.292;2023-12-28T05:16:15;5.07;;;1.20;;
50932;SDS011;36921;49.006;9.292;2023-12-28T05:18:40;5.05;;;1.25;;
50932;SDS011;36921;49.006;9.292;2023-12-28T05:21:06;2.65;;;1.27;;
50932;SDS011;36921;49.006;9.292;2023-12-28T05:23:31;2.22;;;1.08;;
50932;SDS011;36921;49.006;9.292;2023-12-28T05:25:56;2.63;;;1.15;;
50932;SDS011;36921;49.006;9.292;2023-12-28T05:28:21;3.80;;;1.40;;
50932;SDS011;36921;49.006;9.292;2023-12-28T05:30:47;3.90;;;1.15;;
50932;SDS011;36921;49.006;9.292;2023-12-28T05:33:12;1.95;;;1.10;;
50932;SDS011;36921;49.006;9.292;2023-12-28T05:35:37;6.15;;;2.75;;
50932;SDS011;36921;49.006;9.292;2023-12-28T05:38:03;3.55;;;1.85;;
50932;SDS011;36921;49.006;9.292;2023-12-28T05:40:28;3.10;;;1.75;;
50932;SDS011;36921;49.006;9.292;2023-12-28T05:42:54;10.02;;;3.30;;
50932;SDS011;36921;49.006;9.292;2023-12-28T05:45:19;6.40;;;2.55;;
50932;SDS011;36921;49.006;9.292;2023-12-28T05:47:44;5.60;;;2.95;;
50932;SDS011;36921;49.006;9.292;2023-12-28T05:50:10;6.45;;;2.60;;
50932;SDS011;36921;49.006;9.292;2023-12-28T05:52:35;5.82;;;2.38;;
50932;SDS011;36921;49.006;9.292;2023-12-28T05:55:00;3.20;;;1.40;;
50932;SDS011;36921;49.006;9.292;2023-12-28T05:57:26;4.20;;;2.28;;
50932;SDS011;36921;49.006;9.292;2023-12-28T05:59:54;3.55;;;1.60;;
50932;SDS011;36921;49.006;9.292;2023-12-28T06:02:20;3.25;;;1.58;;
50932;SDS011;36921;49.006;9.292;2023-12-28T06:04:45;2.67;;;1.20;;
50932;SDS011;36921;49.006;9.292;2023-12-28T06:07:10;3.17;;;1.50;;
50932;SDS011;36921;49.006;9.292;2023-12-28T06:09:36;2.97;;;1.58;;
50932;SDS011;36921;49.006;9.292;2023-12-28T06:12:03;3.35;;;1.50;;
50932;SDS011;36921;49.006;9.292;2023-12-28T06:14:29;3.53;;;1.60;;
50932;SDS011;36921;49.006;9.292;2023-12-28T06:16:55;2.50;;;1.30;;
50932;SDS011;36921;49.006;9.292;2023-12-28T06:19:20;2.30;;;1.25;;
50932;SDS011;36921;49.006;9.292;2023-12-28T06:21:46;4.18;;;1.27;;
50932;SDS011;36921;49.006;9.292;2023-12-28T06:24:12;3.38;;;1.45;;
50932;SDS011;36921;49.006;9.292;2023-12-28T06:26:41;9.20;;;3.05;;
50932;SDS011;36921;49.006;9.292;2023-12-28T06:29:07;3.95;;;1.67;;
50932;SDS011;36921;49.006;9.292;2023-12-28T06:31:33;2.75;;;1.45;;
50932;SDS011;36921;49.006;9.292;2023-12-28T06:34:01;7.05;;;2.13;;
50932;SDS011;36921;49.006;9.292;2023-12-28T06:36:33;7.93;;;1.85;;
50932;SDS011;36921;49.006;9.292;2023-12-28T06:38:59;3.72;;;1.60;;
50932;SDS011;36921;49.006;9.292;2023-12-28T06:41:24;4.85;;;1.40;;
50932;SDS011;36921;49.006;9.292;2023-12-28T06:43:50;2.28;;;1.38;;
50932;SDS011;36921;49.006;9.292;2023-12-28T06:46:15;4.25;;;1.30;;
50932;SDS011;36921;49.006;9.292;2023-12-28T06:48:41;1.55;;;1.08;;
50932;SDS011;36921;49.006;9.292;2023-12-28T06:51:08;3.03;;;1.60;;
50932;SDS011;36921;49.006;9.292;2023-12-28T06:53:34;3.47;;;1.35;;
50932;SDS011;36921;49.006;9.292;2023-12-28T06:55:59;3.97;;;1.40;;
50932;SDS011;36921;49.006;9.292;2023-12-28T06:58:24;4.30;;;1.52;;
50932;SDS011;36921;49.006;9.292;2023-12-28T07:00:49;3.53;;;1.60;;
50932;SDS011;36921;49.006;9.292;2023-12-28T07:03:15;2.63;;;1.10;;
50932;SDS011;36921;49.006;9.292;2023-12-28T07:05:40;2.92;;;1.70;;
50932;SDS011;36921;49.006;9.292;2023-12-28T07:08:06;5.85;;;1.60;;
50932;SDS011;36921;49.006;9.292;2023-12-28T07:10:31;7.35;;;1.50;;
50932;SDS011;36921;49.006;9.292;2023-12-28T07:12:56;3.20;;;1.63;;
50932;SDS011;36921;49.006;9.292;2023-12-28T07:15:22;4.20;;;1.75;;
50932;SDS011;36921;49.006;9.292;2023-12-28T07:17:47;2.85;;;1.50;;
50932;SDS011;36921;49.006;9.292;2023-12-28T07:20:12;3.67;;;1.75;;
50932;SDS011;36921;49.006;9.292;2023-12-28T07:22:38;2.80;;;1.55;;
50932;SDS011;36921;49.006;9.292;2023-12-28T07:25:04;3.47;;;1.75;;
50932;SDS011;36921;49.006;9.292;2023-12-28T07:27:31;2.90;;;1.45;;
50932;SDS011;36921;49.006;9.292;2023-12-28T07:29:56;4.22;;;1.52;;
50932;SDS011;36921;49.006;9.292;2023-12-28T07:32:21;3.75;;;1.58;;
50932;SDS011;36921;49.006;9.292;2023-12-28T07:34:50;3.55;;;1.67;;
50932;SDS011;36921;49.006;9.292;2023-12-28T07:37:16;6.80;;;1.67;;
50932;SDS011;36921;49.006;9.292;2023-12-28T07:39:41;3.40;;;1.55;;
50932;SDS011;36921;49.006;9.292;2023-12-28T07:42:07;2.58;;;1.70;;
50932;SDS011;36921;49.006;9.292;2023-12-28T07:44:32;4.97;;;1.80;;
50932;SDS011;36921;49.006;9.292;2023-12-28T07:46:57;7.50;;;1.75;;
50932;SDS011;36921;49.006;9.292;2023-12-28T07:49:23;4.60;;;2.22;;
50932;SDS011;36921;49.006;9.292;2023-12-28T07:51:48;3.60;;;1.60;;
50932;SDS011;36921;49.006;9.292;2023-12-28T07:54:14;5.97;;;1.77;;
50932;SDS011;36921;49.006;9.292;2023-12-28T07:56:39;4.60;;;2.05;;
50932;SDS011;36921;49.006;9.292;2023-12-28T07:59:05;6.45;;;2.05;;
50932;SDS011;36921;49.006;9.292;2023-12-28T08:01:31;6.20;;;2.97;;
50932;SDS011;36921;49.006;9.292;2023-12-28T08:03:59;7.18;;;3.83;;
50932;SDS011;36921;49.006;9.292;2023-12-28T08:06:24;9.85;;;4.38;;
50932;SDS011;36921;49.006;9.292;2023-12-28T08:08:50;8.48;;;4.30;;
50932;SDS011;36921;49.006;9.292;2023-12-28T08:11:15;8.23;;;3.78;;
50932;SDS011;36921;49.006;9.292;2023-12-28T08:13:41;15.93;;;7.50;;
50932;SDS011;36921;49.006;9.292;2023-12-28T08:16:06;16.08;;;7.35;;
50932;SDS011;36921;49.006;9.292;2023-12-28T08:18:32;11.43;;;6.00;;
50932;SDS011;36921;49.006;9.292;2023-12-28T08:20:57;6.75;;;4.25;;
50932;SDS011;36921;49.006;9.292;2023-12-28T08:23:24;6.90;;;3.65;;
50932;SDS011;36921;49.006;9.292;2023-12-28T08:25:49;10.18;;;3.72;;
50932;SDS011;36921;49.006;9.292;2023-12-28T08:28:14;8.45;;;3.60;;
50932;SDS011;36921;49.006;9.292;2023-12-28T08:30:40;10.98;;;3.72;;
50932;SDS011;36921;49.006;9.292;2023-12-28T08:33:05;9.48;;;3.60;;
50932;SDS011;36921;49.006;9.292;2023-12-28T08:35:31;6.25;;;3.13;;
50932;SDS011;36921;49.006;9.292;2023-12-28T08:37:56;9.13;;;3.83;;
50932;SDS011;36921;49.006;9.292;2023-12-28T08:40:22;11.05;;;3.60;;
50932;SDS011;36921;49.006;9.292;2023-12-28T08:42:47;12.18;;;3.42;;
50932;SDS011;36921;49.006;9.292;2023-12-28T08:45:13;5.90;;;2.80;;
50932;SDS011;36921;49.006;9.292;2023-12-28T08:47:38;9.18;;;3.17;;
50932;SDS011;36921;49.006;9.292;2023-12-28T08:50:04;6.53;;;2.90;;
50932;SDS011;36921;49.006;9.292;2023-12-28T08:52:30;7.90;;;3.00;;
50932;SDS011;36921;49.006;9.292;2023-12-28T08:54:56;6.63;;;3.10;;
50932;SDS011;36921;49.006;9.292;2023-12-28T08:57:21;6.28;;;2.67;;
50932;SDS011;36921;49.006;9.292;2023-12-28T08:59:47;14.20;;;5.07;;
50932;SDS011;36921;49.006;9.292;2023-12-28T09:02:12;11.60;;;4.80;;
50932;SDS011;36921;49.006;9.292;2023-12-28T09:04:38;7.90;;;4.63;;
50932;SDS011;36921;49.006;9.292;2023-12-28T09:07:04;9.18;;;3.55;;
50932;SDS011;36921;49.006;9.292;2023-12-28T09:09:29;7.65;;;3.88;;
50932;SDS011;36921;49.006;9.292;2023-12-28T09:11:55;12.63;;;5.93;;
50932;SDS011;36921;49.006;9.292;2023-12-28T09:14:21;12.32;;;6.50;;
50932;SDS011;36921;49.006;9.292;2023-12-28T09:16:47;10.77;;;5.72;;
50932;SDS011;36921;49.006;9.292;2023-12-28T09:19:12;8.27;;;4.15;;
50932;SDS011;36921;49.006;9.292;2023-12-28T09:21:38;8.60;;;4.47;;
50932;SDS011;36921;49.006;9.292;2023-12-28T09:24:03;10.38;;;5.47;;
50932;SDS011;36921;49.006;9.292;2023-12-28T09:26:29;11.32;;;6.10;;
50932;SDS011;36921;49.006;9.292;2023-12-28T09:28:54;13.20;;;6.28;;
50932;SDS011;36921;49.006;9.292;2023-12-28T09:31:20;9.20;;;4.68;;
50932;SDS011;36921;49.006;9.292;2023-12-28T09:33:45;7.57;;;3.25;;
50932;SDS011;36921;49.006;9.292;2023-12-28T09:36:11;7.20;;;3.25;;
50932;SDS011;36921;49.006;9.292;2023-12-28T09:38:39;7.00;;;3.23;;
50932;SDS011;36921;49.006;9.292;2023-12-28T09:41:12;12.48;;;4.63;;
50932;SDS011;36921;49.006;9.292;2023-12-28T09:46:10;10.70;;;5.80;;
50932;SDS011;36921;49.006;9.292;2023-12-28T09:48:36;12.48;;;5.82;;
50932;SDS011;36921;49.006;9.292;2023-12-28T09:53:31;12.90;;;5.38;;
50932;SDS011;36921;49.006;9.292;2023-12-28T09:55:56;6.13;;;3.45;;
50932;SDS011;36921;49.006;9.292;2023-12-28T09:58:23;25.83;;;8.13;;
50932;SDS011;36921;49.006;9.292;2023-12-28T10:00:50;22.02;;;8.00;;
50932;SDS011;36921;49.006;9.292;2023-12-28T10:03:15;21.17;;;8.52;;
50932;SDS011;36921;49.006;9.292;2023-12-28T10:05:42;29.67;;;9.73;;
50932;SDS011;36921;49.006;9.292;2023-12-28T10:08:10;19.20;;;8.13;;
50932;SDS011;36921;49.006;9.292;2023-12-28T10:13:06;14.32;;;5.72;;
50932;SDS011;36921;49.006;9.292;2023-12-28T10:15:33;10.02;;;5.10;;
50932;SDS011;36921;49.006;9.292;2023-12-28T10:18:00;11.25;;;5.65;;
50932;SDS011;36921;49.006;9.292;2023-12-28T10:20:28;9.50;;;4.88;;
50932;SDS011;36921;49.006;9.292;2023-12-28T10:22:54;8.50;;;4.32;;
50932;SDS011;36921;49.006;9.292;2023-12-28T10:25:21;15.57;;;5.07;;
50932;SDS011;36921;49.006;9.292;2023-12-28T10:27:49;12.18;;;5.85;;
50932;SDS011;36921;49.006;9.292;2023-12-28T10:30:16;16.88;;;7.65;;
50932;SDS011;36921;49.006;9.292;2023-12-28T10:32:41;10.32;;;4.60;;
50932;SDS011;36921;49.006;9.292;2023-12-28T10:35:07;5.60;;;3.72;;
50932;SDS011;36921;49.006;9.292;2023-12-28T10:37:33;8.77;;;3.17;;
50932;SDS011;36921;49.006;9.292;2023-12-28T10:40:00;7.35;;;3.92;;
50932;SDS011;36921;49.006;9.292;2023-12-28T10:42:32;6.80;;;3.33;;
50932;SDS011;36921;49.006;9.292;2023-12-28T10:45:04;7.55;;;4.68;;
50932;SDS011;36921;49.006;9.292;2023-12-28T10:47:34;8.50;;;4.70;;
50932;SDS011;36921;49.006;9.292;2023-12-28T10:50:03;7.80;;;4.00;;
50932;SDS011;36921;49.006;9.292;2023-12-28T10:52:33;8.82;;;4.13;;
50932;SDS011;36921;49.006;9.292;2023-12-28T10:55:03;8.15;;;4.28;;
50932;SDS011;36921;49.006;9.292;2023-12-28T10:57:49;7.65;;;4.50;;
50932;SDS011;36921;49.006;9.292;2023-12-28T11:00:25;11.02;;;5.40;;
50932;SDS011;36921;49.006;9.292;2023-12-28T11:02:53;13.70;;;7.90;;
50932;SDS011;36921;49.006;9.292;2023-12-28T11:05:23;16.45;;;8.90;;
50932;SDS011;36921;49.006;9.292;2023-12-28T11:07:50;15.82;;;8.30;;
50932;SDS011;36921;49.006;9.292;2023-12-28T11:10:22;16.85;;;8.30;;
50932;SDS011;36921;49.006;9.292;2023-12-28T11:12:49;17.08;;;8.43;;
50932;SDS011;36921;49.006;9.292;2023-12-28T11:15:17;13.75;;;7.22;;
50932;SDS011;36921;49.006;9.292;2023-12-28T11:17:43;15.40;;;7.20;;
50932;SDS011;36921;49.006;9.292;2023-12-28T11:20:09;12.57;;;6.60;;
50932;SDS011;36921;49.006;9.292;2023-12-28T11:22:35;10.85;;;6.05;;
50932;SDS011;36921;49.006;9.292;2023-12-28T11:25:02;13.70;;;6.05;;
50932;SDS011;36921;49.006;9.292;2023-12-28T11:27:35;13.93;;;5.90;;
50932;SDS011;36921;49.006;9.292;2023-12-28T11:30:04;11.77;;;6.05;;
50932;SDS011;36921;49.006;9.292;2023-12-28T11:32:32;8.35;;;3.60;;
50932;SDS011;36921;49.006;9.292;2023-12-28T11:34:59;10.63;;;4.28;;
50932;SDS011;36921;49.006;9.292;2023-12-28T11:37:26;10.40;;;5.28;;
50932;SDS011;36921;49.006;9.292;2023-12-28T11:39:52;8.75;;;4.35;;
50932;SDS011;36921;49.006;9.292;2023-12-28T11:42:20;6.38;;;3.60;;
50932;SDS011;36921;49.006;9.292;2023-12-28T11:44:47;7.90;;;3.42;;
50932;SDS011;36921;49.006;9.292;2023-12-28T11:47:24;8.80;;;2.92;;
50932;SDS011;36921;49.006;9.292;2023-12-28T11:49:52;6.90;;;2.90;;
50932;SDS011;36921;49.006;9.292;2023-12-28T11:52:28;5.55;;;2.47;;
50932;SDS011;36921;49.006;9.292;2023-12-28T11:54:55;4.97;;;2.50;;
50932;SDS011;36921;49.006;9.292;2023-12-28T11:57:22;5.28;;;2.13;;
50932;SDS011;36921;49.006;9.292;2023-12-28T11:59:48;6.18;;;2.50;;
50932;SDS011;36921;49.006;9.292;2023-12-28T12:02:20;5.93;;;2.40;;
50932;SDS011;36921;49.006;9.292;2023-12-28T12:04:46;3.83;;;1.90;;
50932;SDS011;36921;49.006;9.292;2023-12-28T12:07:12;5.88;;;1.58;;
50932;SDS011;36921;49.006;9.292;2023-12-28T12:09:38;5.05;;;2.20;;
50932;SDS011;36921;49.006;9.292;2023-12-28T12:12:03;2.80;;;1.70;;
50932;SDS011;36921;49.006;9.292;2023-12-28T12:14:30;2.50;;;1.25;;
50932;SDS011;36921;49.006;9.292;2023-12-28T12:16:56;2.22;;;1.10;;
50932;SDS011;36921;49.006;9.292;2023-12-28T12:19:23;1.98;;;1.10;;
50932;SDS011;36921;49.006;9.292;2023-12-28T12:21:54;1.67;;;0.90;;
50932;SDS011;36921;49.006;9.292;2023-12-28T12:24:20;2.47;;;0.77;;
50932;SDS011;36921;49.006;9.292;2023-12-28T12:26:46;1.08;;;0.68;;
50932;SDS011;36921;49.006;9.292;2023-12-28T12:29:12;3.15;;;1.17;;
50932;SDS011;36921;49.006;9.292;2023-12-28T12:31:39;2.28;;;1.10;;
50932;SDS011;36921;49.006;9.292;2023-12-28T12:34:07;2.90;;;1.40;;
50932;SDS011;36921;49.006;9.292;2023-12-28T12:36:33;2.00;;;1.10;;
50932;SDS011;36921;49.006;9.292;2023-12-28T12:38:59;2.58;;;1.17;;
50932;SDS011;36921;49.006;9.292;2023-12-28T12:41:25;1.73;;;1.00;;
50932;SDS011;36921;49.006;9.292;2023-12-28T12:43:52;3.67;;;1.00;;
50932;SDS011;36921;49.006;9.292;2023-12-28T12:49:07;2.22;;;1.10;;
50932;SDS011;36921;49.006;9.292;2023-12-28T12:51:32;2.25;;;1.10;;
50932;SDS011;36921;49.006;9.292;2023-12-28T12:53:57;3.42;;;1.70;;
50932;SDS011;36921;49.006;9.292;2023-12-28T12:56:25;1.80;;;1.10;;
50932;SDS011;36921;49.006;9.292;2023-12-28T12:58:51;3.85;;;1.52;;
50932;SDS011;36921;49.006;9.292;2023-12-28T13:01:16;4.82;;;1.58;;
50932;SDS011;36921;49.006;9.292;2023-12-28T13:03:42;2.78;;;1.67;;
50932;SDS011;36921;49.006;9.292;2023-12-28T13:06:07;3.00;;;1.52;;
50932;SDS011;36921;49.006;9.292;2023-12-28T13:08:33;3.20;;;1.15;;
50932;SDS011;36921;49.006;9.292;2023-12-28T13:10:58;3.25;;;1.25;;
50932;SDS011;36921;49.006;9.292;2023-12-28T13:13:23;2.00;;;1.20;;
50932;SDS011;36921;49.006;9.292;2023-12-28T13:15:49;1.77;;;1.20;;
50932;SDS011;36921;49.006;9.292;2023-12-28T13:18:14;2.70;;;1.10;;
50932;SDS011;36921;49.006;9.292;2023-12-28T13:20:40;3.10;;;1.17;;
50932;SDS011;36921;49.006;9.292;2023-12-28T13:23:07;2.10;;;1.20;;
50932;SDS011;36921;49.006;9.292;2023-12-28T13:25:33;1.85;;;1.02;;
50932;SDS011;36921;49.006;9.292;2023-12-28T13:27:59;2.70;;;0.90;;
50932;SDS011;36921;49.006;9.292;2023-12-28T13:30:24;4.93;;;1.15;;
50932;SDS011;36921;49.006;9.292;2023-12-28T13:32:53;2.33;;;1.02;;
50932;SDS011;36921;49.006;9.292;2023-12-28T13:35:20;2.90;;;1.27;;
50932;SDS011;36921;49.006;9.292;2023-12-28T13:37:45;5.03;;;1.50;;
50932;SDS011;36921;49.006;9.292;2023-12-28T13:40:10;2.38;;;0.80;;
50932;SDS011;36921;49.006;9.292;2023-12-28T13:42:36;2.30;;;1.00;;
50932;SDS011;36921;49.006;9.292;2023-12-28T13:45:02;2.83;;;0.90;;
50932;SDS011;36921;49.006;9.292;2023-12-28T13:47:28;1.20;;;0.60;;
50932;SDS011;36921;49.006;9.292;2023-12-28T13:49:53;2.70;;;0.90;;
50932;SDS011;36921;49.006;9.292;2023-12-28T13:52:19;2.17;;;0.77;;
50932;SDS011;36921;49.006;9.292;2023-12-28T13:54:45;1.55;;;1.00;;
50932;SDS011;36921;49.006;9.292;2023-12-28T13:57:10;1.98;;;1.05;;
50932;SDS011;36921;49.006;9.292;2023-12-28T13:59:36;2.63;;;1.10;;
50932;SDS011;36921;49.006;9.292;2023-12-28T14:02:02;1.52;;;1.00;;
50932;SDS011;36921;49.006;9.292;2023-12-28T14:04:28;2.90;;;1.40;;
50932;SDS011;36921;49.006;9.292;2023-12-28T14:06:54;3.75;;;1.23;;
50932;SDS011;36921;49.006;9.292;2023-12-28T14:09:19;2.08;;;0.98;;
50932;SDS011;36921;49.006;9.292;2023-12-28T14:11:47;4.18;;;1.23;;
50932;SDS011;36921;49.006;9.292;2023-12-28T14:14:13;1.60;;;0.70;;
50932;SDS011;36921;49.006;9.292;2023-12-28T14:16:39;2.17;;;1.10;;
50932;SDS011;36921;49.006;9.292;2023-12-28T14:19:05;1.05;;;0.60;;
50932;SDS011;36921;49.006;9.292;2023-12-28T14:21:34;2.58;;;1.10;;
50932;SDS011;36921;49.006;9.292;2023-12-28T14:24:03;1.75;;;1.00;;
50932;SDS011;36921;49.006;9.292;2023-12-28T14:26:31;1.45;;;0.80;;
50932;SDS011;36921;49.006;9.292;2023-12-28T14:28:58;3.28;;;1.00;;
50932;SDS011;36921;49.006;9.292;2023-12-28T14:31:24;3.22;;;1.00;;
50932;SDS011;36921;49.006;9.292;2023-12-28T14:33:51;2.20;;;0.80;;
50932;SDS011;36921;49.006;9.292;2023-12-28T14:39:02;1.67;;;0.90;;
50932;SDS011;36921;49.006;9.292;2023-12-28T14:41:34;2.10;;;1.08;;
50932;SDS011;36921;49.006;9.292;2023-12-28T14:44:00;2.05;;;0.90;;
50932;SDS011;36921;49.006;9.292;2023-12-28T14:46:26;2.13;;;0.90;;
50932;SDS011;36921;49.006;9.292;2023-12-28T14:48:52;1.13;;;0.93;;
50932;SDS011;36921;49.006;9.292;2023-12-28T14:51:18;3.03;;;1.00;;
50932;SDS011;36921;49.006;9.292;2023-12-28T14:53:44;4.72;;;1.70;;
50932;SDS011;36921;49.006;9.292;2023-12-28T14:56:10;3.35;;;1.67;;
50932;SDS011;36921;49.006;9.292;2023-12-28T14:58:37;3.70;;;1.60;;